sensor_id;sensor_type;location;lat;lon;timestamp;P1;durP1;ratioP1;P2;durP2;ratioP2
1128;SDS011;553;51.038;7.216;2024-01-10T00:01:54;10.55;;;5.00;;
1128;SDS011;553;51.038;7.216;2024-01-10T00:04:21;14.15;;;5.15;;
1128;SDS011;553;51.038;7.216;2024-01-10T00:06:48;8.00;;;5.00;;
1128;SDS011;553;51.038;7.216;2024-01-10T00:09:15;10.13;;;5.45;;
1128;SDS011;553;51.038;7.216;2024-01-10T00:11:41;10.43;;;5.38;;
1128;SDS011;553;51.038;7.216;2024-01-10T00:14:08;10.95;;;6.05;;
1128;SDS011;553;51.038;7.216;2024-01-10T00:16:35;10.00;;;5.32;;
1128;SDS011;553;51.038;7.216;2024-01-10T00:19:02;11.65;;;5.05;;
1128;SDS011;553;51.038;7.216;2024-01-10T00:21:30;7.35;;;3.90;;
1128;SDS011;553;51.038;7.216;2024-01-10T00:23:57;7.35;;;3.75;;
1128;SDS011;553;51.038;7.216;2024-01-10T00:26:23;9.57;;;3.80;;
1128;SDS011;553;51.038;7.216;2024-01-10T00:28:50;8.77;;;3.78;;
1128;SDS011;553;51.038;7.216;2024-01-10T00:31:18;7.97;;;3.13;;
1128;SDS011;553;51.038;7.216;2024-01-10T00:33:45;7.55;;;3.78;;
1128;SDS011;553;51.038;7.216;2024-01-10T00:36:11;6.55;;;3.53;;
1128;SDS011;553;51.038;7.216;2024-01-10T00:38:38;6.97;;;3.90;;
1128;SDS011;553;51.038;7.216;2024-01-10T00:41:06;8.45;;;3.80;;
1128;SDS011;553;51.038;7.216;2024-01-10T00:43:33;6.53;;;4.07;;
1128;SDS011;553;51.038;7.216;2024-01-10T00:46:00;9.68;;;4.45;;
1128;SDS011;553;51.038;7.216;2024-01-10T00:48:26;7.88;;;4.35;;
1128;SDS011;553;51.038;7.216;2024-01-10T00:50:53;9.27;;;3.95;;
1128;SDS011;553;51.038;7.216;2024-01-10T00:53:20;8.48;;;3.42;;
1128;SDS011;553;51.038;7.216;2024-01-10T00:55:47;8.05;;;4.05;;
1128;SDS011;553;51.038;7.216;2024-01-10T00:58:14;9.40;;;4.05;;
1128;SDS011;553;51.038;7.216;2024-01-10T01:00:41;9.10;;;4.15;;
1128;SDS011;553;51.038;7.216;2024-01-10T01:03:08;13.18;;;4.90;;
1128;SDS011;553;51.038;7.216;2024-01-10T01:05:35;9.00;;;5.18;;
1128;SDS011;553;51.038;7.216;2024-01-10T01:08:02;11.95;;;5.20;;
1128;SDS011;553;51.038;7.216;2024-01-10T01:10:29;10.15;;;4.22;;
1128;SDS011;553;51.038;7.216;2024-01-10T01:12:56;9.35;;;4.15;;
1128;SDS011;553;51.038;7.216;2024-01-10T01:15:22;7.70;;;3.67;;
1128;SDS011;553;51.038;7.216;2024-01-10T01:17:49;12.27;;;4.85;;
1128;SDS011;553;51.038;7.216;2024-01-10T01:20:16;9.10;;;4.80;;
1128;SDS011;553;51.038;7.216;2024-01-10T01:22:43;7.78;;;4.88;;
1128;SDS011;553;51.038;7.216;2024-01-10T01:25:09;8.43;;;4.00;;
1128;SDS011;553;51.038;7.216;2024-01-10T01:27:36;8.70;;;3.88;;
1128;SDS011;553;51.038;7.216;2024-01-10T01:30:03;7.35;;;3.90;;
1128;SDS011;553;51.038;7.216;2024-01-10T01:32:30;6.30;;;3.65;;
1128;SDS011;553;51.038;7.216;2024-01-10T01:34:57;7.70;;;3.65;;
1128;SDS011;553;51.038;7.216;2024-01-10T01:37:24;5.68;;;3.22;;
1128;SDS011;553;51.038;7.216;2024-01-10T01:39:51;6.93;;;3.75;;
1128;SDS011;553;51.038;7.216;2024-01-10T01:42:17;9.73;;;4.13;;
1128;SDS011;553;51.038;7.216;2024-01-10T01:44:44;8.95;;;4.93;;
1128;SDS011;553;51.038;7.216;2024-01-10T01:47:10;18.20;;;7.55;;
1128;SDS011;553;51.038;7.216;2024-01-10T01:49:38;21.08;;;7.80;;
1128;SDS011;553;51.038;7.216;2024-01-10T01:52:05;11.73;;;5.35;;
1128;SDS011;553;51.038;7.216;2024-01-10T01:54:33;11.45;;;4.50;;
1128;SDS011;553;51.038;7.216;2024-01-10T01:57:00;8.88;;;3.95;;
1128;SDS011;553;51.038;7.216;2024-01-10T01:59:27;9.95;;;3.72;;
1128;SDS011;553;51.038;7.216;2024-01-10T02:01:54;7.60;;;4.20;;
1128;SDS011;553;51.038;7.216;2024-01-10T02:04:22;6.40;;;3.38;;
1128;SDS011;553;51.038;7.216;2024-01-10T02:06:49;11.98;;;4.88;;
1128;SDS011;553;51.038;7.216;2024-01-10T02:09:16;16.73;;;5.90;;
1128;SDS011;553;51.038;7.216;2024-01-10T02:11:43;9.98;;;4.43;;
1128;SDS011;553;51.038;7.216;2024-01-10T02:14:10;12.05;;;4.63;;
1128;SDS011;553;51.038;7.216;2024-01-10T02:16:38;7.13;;;3.38;;
1128;SDS011;553;51.038;7.216;2024-01-10T02:19:21;9.93;;;4.07;;
1128;SDS011;553;51.038;7.216;2024-01-10T02:21:49;12.95;;;5.15;;
1128;SDS011;553;51.038;7.216;2024-01-10T02:24:16;14.70;;;4.80;;
1128;SDS011;553;51.038;7.216;2024-01-10T02:26:42;12.18;;;4.50;;
1128;SDS011;553;51.038;7.216;2024-01-10T02:29:09;7.28;;;4.00;;
1128;SDS011;553;51.038;7.216;2024-01-10T02:31:36;9.10;;;4.63;;
1128;SDS011;553;51.038;7.216;2024-01-10T02:34:03;9.90;;;5.57;;
1128;SDS011;553;51.038;7.216;2024-01-10T02:36:30;8.20;;;3.40;;
1128;SDS011;553;51.038;7.216;2024-01-10T02:38:57;6.57;;;3.15;;
1128;SDS011;553;51.038;7.216;2024-01-10T02:41:23;6.18;;;2.15;;
1128;SDS011;553;51.038;7.216;2024-01-10T02:43:50;5.65;;;2.90;;
1128;SDS011;553;51.038;7.216;2024-01-10T02:46:17;4.40;;;2.53;;
1128;SDS011;553;51.038;7.216;2024-01-10T02:48:44;6.40;;;3.28;;
1128;SDS011;553;51.038;7.216;2024-01-10T02:51:12;5.97;;;2.90;;
1128;SDS011;553;51.038;7.216;2024-01-10T02:53:39;11.77;;;4.10;;
1128;SDS011;553;51.038;7.216;2024-01-10T02:56:06;4.93;;;2.65;;
1128;SDS011;553;51.038;7.216;2024-01-10T02:58:33;6.38;;;3.05;;
1128;SDS011;553;51.038;7.216;2024-01-10T03:01:00;5.88;;;3.17;;
1128;SDS011;553;51.038;7.216;2024-01-10T03:03:27;6.13;;;3.55;;
1128;SDS011;553;51.038;7.216;2024-01-10T03:05:54;8.60;;;3.15;;
1128;SDS011;553;51.038;7.216;2024-01-10T03:08:21;6.47;;;3.28;;
1128;SDS011;553;51.038;7.216;2024-01-10T03:10:48;8.45;;;3.30;;
1128;SDS011;553;51.038;7.216;2024-01-10T03:13:15;9.20;;;3.75;;
1128;SDS011;553;51.038;7.216;2024-01-10T03:15:41;8.93;;;3.22;;
1128;SDS011;553;51.038;7.216;2024-01-10T03:18:08;8.30;;;3.40;;
1128;SDS011;553;51.038;7.216;2024-01-10T03:20:35;7.40;;;4.00;;
1128;SDS011;553;51.038;7.216;2024-01-10T03:23:02;10.23;;;3.28;;
1128;SDS011;553;51.038;7.216;2024-01-10T03:25:28;9.70;;;2.90;;
1128;SDS011;553;51.038;7.216;2024-01-10T03:27:55;10.57;;;3.83;;
1128;SDS011;553;51.038;7.216;2024-01-10T03:30:22;7.55;;;3.42;;
1128;SDS011;553;51.038;7.216;2024-01-10T03:32:50;6.05;;;3.40;;
1128;SDS011;553;51.038;7.216;2024-01-10T03:35:17;7.13;;;3.78;;
1128;SDS011;553;51.038;7.216;2024-01-10T03:37:44;6.20;;;2.92;;
1128;SDS011;553;51.038;7.216;2024-01-10T03:40:11;7.55;;;3.95;;
1128;SDS011;553;51.038;7.216;2024-01-10T03:42:38;7.10;;;3.72;;
1128;SDS011;553;51.038;7.216;2024-01-10T03:45:05;7.28;;;3.17;;
1128;SDS011;553;51.038;7.216;2024-01-10T03:47:32;7.25;;;3.50;;
1128;SDS011;553;51.038;7.216;2024-01-10T03:49:58;8.98;;;4.30;;
1128;SDS011;553;51.038;7.216;2024-01-10T03:52:26;9.52;;;4.35;;
1128;SDS011;553;51.038;7.216;2024-01-10T03:54:52;10.95;;;4.57;;
1128;SDS011;553;51.038;7.216;2024-01-10T03:57:19;8.57;;;4.32;;
1128;SDS011;553;51.038;7.216;2024-01-10T03:59:46;9.10;;;3.67;;
1128;SDS011;553;51.038;7.216;2024-01-10T04:02:12;6.78;;;3.40;;
1128;SDS011;553;51.038;7.216;2024-01-10T04:04:39;20.42;;;10.30;;
1128;SDS011;553;51.038;7.216;2024-01-10T04:07:06;21.23;;;11.68;;
1128;SDS011;553;51.038;7.216;2024-01-10T04:09:33;13.82;;;7.80;;
1128;SDS011;553;51.038;7.216;2024-01-10T04:12:00;9.10;;;5.18;;
1128;SDS011;553;51.038;7.216;2024-01-10T04:14:27;11.35;;;6.95;;
1128;SDS011;553;51.038;7.216;2024-01-10T04:16:53;15.95;;;7.40;;
1128;SDS011;553;51.038;7.216;2024-01-10T04:19:21;7.82;;;4.53;;
1128;SDS011;553;51.038;7.216;2024-01-10T04:21:47;6.88;;;3.55;;
1128;SDS011;553;51.038;7.216;2024-01-10T04:24:14;6.47;;;3.53;;
1128;SDS011;553;51.038;7.216;2024-01-10T04:26:41;5.43;;;2.72;;
1128;SDS011;553;51.038;7.216;2024-01-10T04:29:07;12.63;;;7.07;;
1128;SDS011;553;51.038;7.216;2024-01-10T04:31:34;11.98;;;6.30;;
1128;SDS011;553;51.038;7.216;2024-01-10T04:34:02;9.63;;;5.22;;
1128;SDS011;553;51.038;7.216;2024-01-10T04:36:29;9.40;;;5.25;;
1128;SDS011;553;51.038;7.216;2024-01-10T04:38:56;7.40;;;3.78;;
1128;SDS011;553;51.038;7.216;2024-01-10T04:41:23;5.72;;;3.47;;
1128;SDS011;553;51.038;7.216;2024-01-10T04:43:51;8.27;;;3.55;;
1128;SDS011;553;51.038;7.216;2024-01-10T04:46:18;8.02;;;4.10;;
1128;SDS011;553;51.038;7.216;2024-01-10T04:48:44;12.27;;;4.15;;
1128;SDS011;553;51.038;7.216;2024-01-10T04:51:11;11.57;;;4.50;;
1128;SDS011;553;51.038;7.216;2024-01-10T04:53:38;8.23;;;4.22;;
1128;SDS011;553;51.038;7.216;2024-01-10T04:56:05;8.55;;;4.32;;
1128;SDS011;553;51.038;7.216;2024-01-10T04:58:32;11.88;;;4.97;;
1128;SDS011;553;51.038;7.216;2024-01-10T05:01:00;12.27;;;3.95;;
1128;SDS011;553;51.038;7.216;2024-01-10T05:03:27;12.23;;;5.20;;
1128;SDS011;553;51.038;7.216;2024-01-10T05:05:54;11.45;;;5.13;;
1128;SDS011;553;51.038;7.216;2024-01-10T05:08:20;7.97;;;4.70;;
1128;SDS011;553;51.038;7.216;2024-01-10T05:10:47;8.88;;;4.53;;
1128;SDS011;553;51.038;7.216;2024-01-10T05:13:14;10.65;;;4.53;;
1128;SDS011;553;51.038;7.216;2024-01-10T05:15:41;12.25;;;5.00;;
1128;SDS011;553;51.038;7.216;2024-01-10T05:18:08;10.82;;;5.68;;
1128;SDS011;553;51.038;7.216;2024-01-10T05:20:35;7.07;;;4.32;;
1128;SDS011;553;51.038;7.216;2024-01-10T05:23:02;8.20;;;5.45;;
1128;SDS011;553;51.038;7.216;2024-01-10T05:25:29;8.50;;;4.28;;
1128;SDS011;553;51.038;7.216;2024-01-10T05:27:56;12.95;;;5.13;;
1128;SDS011;553;51.038;7.216;2024-01-10T05:30:22;10.00;;;4.90;;
1128;SDS011;553;51.038;7.216;2024-01-10T05:32:53;10.75;;;4.55;;
1128;SDS011;553;51.038;7.216;2024-01-10T05:35:20;7.63;;;3.60;;
1128;SDS011;553;51.038;7.216;2024-01-10T05:37:47;12.35;;;4.72;;
1128;SDS011;553;51.038;7.216;2024-01-10T05:40:14;8.57;;;4.20;;
1128;SDS011;553;51.038;7.216;2024-01-10T05:42:40;10.35;;;5.10;;
1128;SDS011;553;51.038;7.216;2024-01-10T05:45:07;8.77;;;4.60;;
1128;SDS011;553;51.038;7.216;2024-01-10T05:47:34;9.95;;;4.45;;
1128;SDS011;553;51.038;7.216;2024-01-10T05:50:01;11.85;;;4.22;;
1128;SDS011;553;51.038;7.216;2024-01-10T05:52:32;13.60;;;4.78;;
1128;SDS011;553;51.038;7.216;2024-01-10T05:54:59;7.97;;;4.47;;
1128;SDS011;553;51.038;7.216;2024-01-10T05:57:28;10.40;;;4.85;;
1128;SDS011;553;51.038;7.216;2024-01-10T05:59:56;9.63;;;4.80;;
1128;SDS011;553;51.038;7.216;2024-01-10T06:02:23;9.15;;;4.85;;
1128;SDS011;553;51.038;7.216;2024-01-10T06:04:50;7.10;;;4.05;;
1128;SDS011;553;51.038;7.216;2024-01-10T06:07:17;7.90;;;4.70;;
1128;SDS011;553;51.038;7.216;2024-01-10T06:09:44;10.00;;;5.20;;
1128;SDS011;553;51.038;7.216;2024-01-10T06:12:11;9.65;;;5.63;;
1128;SDS011;553;51.038;7.216;2024-01-10T06:14:38;22.98;;;8.70;;
1128;SDS011;553;51.038;7.216;2024-01-10T06:17:05;21.23;;;8.10;;
1128;SDS011;553;51.038;7.216;2024-01-10T06:19:32;15.52;;;7.50;;
1128;SDS011;553;51.038;7.216;2024-01-10T06:21:59;11.95;;;6.00;;
1128;SDS011;553;51.038;7.216;2024-01-10T06:24:26;15.45;;;6.65;;
1128;SDS011;553;51.038;7.216;2024-01-10T06:26:53;13.82;;;6.30;;
1128;SDS011;553;51.038;7.216;2024-01-10T06:29:19;9.60;;;5.40;;
1128;SDS011;553;51.038;7.216;2024-01-10T06:31:47;8.15;;;4.80;;
1128;SDS011;553;51.038;7.216;2024-01-10T06:34:14;15.00;;;5.35;;
1128;SDS011;553;51.038;7.216;2024-01-10T06:36:41;9.27;;;4.05;;
1128;SDS011;553;51.038;7.216;2024-01-10T06:39:09;8.85;;;5.13;;
1128;SDS011;553;51.038;7.216;2024-01-10T06:41:39;7.50;;;4.90;;
1128;SDS011;553;51.038;7.216;2024-01-10T06:44:06;7.57;;;4.72;;
1128;SDS011;553;51.038;7.216;2024-01-10T06:46:33;14.80;;;6.63;;
1128;SDS011;553;51.038;7.216;2024-01-10T06:48:59;10.48;;;5.45;;
1128;SDS011;553;51.038;7.216;2024-01-10T06:51:26;9.52;;;5.68;;
1128;SDS011;553;51.038;7.216;2024-01-10T06:53:53;11.52;;;5.90;;
1128;SDS011;553;51.038;7.216;2024-01-10T06:56:26;10.50;;;4.95;;
1128;SDS011;553;51.038;7.216;2024-01-10T06:58:53;10.43;;;3.83;;
1128;SDS011;553;51.038;7.216;2024-01-10T07:01:20;8.68;;;4.93;;
1128;SDS011;553;51.038;7.216;2024-01-10T07:03:48;9.43;;;4.10;;
1128;SDS011;553;51.038;7.216;2024-01-10T07:06:15;11.15;;;3.83;;
1128;SDS011;553;51.038;7.216;2024-01-10T07:08:43;12.85;;;6.20;;
1128;SDS011;553;51.038;7.216;2024-01-10T07:11:11;12.88;;;6.57;;
1128;SDS011;553;51.038;7.216;2024-01-10T07:13:38;7.05;;;3.55;;
1128;SDS011;553;51.038;7.216;2024-01-10T07:16:05;7.38;;;4.28;;
1128;SDS011;553;51.038;7.216;2024-01-10T07:18:32;7.30;;;3.40;;
1128;SDS011;553;51.038;7.216;2024-01-10T07:20:59;7.32;;;4.05;;
1128;SDS011;553;51.038;7.216;2024-01-10T07:23:26;4.68;;;2.47;;
1128;SDS011;553;51.038;7.216;2024-01-10T07:25:53;10.27;;;3.38;;
1128;SDS011;553;51.038;7.216;2024-01-10T07:28:20;8.52;;;2.55;;
1128;SDS011;553;51.038;7.216;2024-01-10T07:30:47;6.43;;;3.30;;
1128;SDS011;553;51.038;7.216;2024-01-10T07:33:13;11.02;;;6.38;;
1128;SDS011;553;51.038;7.216;2024-01-10T07:35:40;10.88;;;4.25;;
1128;SDS011;553;51.038;7.216;2024-01-10T07:38:08;8.73;;;4.35;;
1128;SDS011;553;51.038;7.216;2024-01-10T07:40:35;9.15;;;4.88;;
1128;SDS011;553;51.038;7.216;2024-01-10T07:43:02;15.10;;;6.97;;
1128;SDS011;553;51.038;7.216;2024-01-10T07:45:29;9.73;;;5.18;;
1128;SDS011;553;51.038;7.216;2024-01-10T07:47:56;9.95;;;4.97;;
1128;SDS011;553;51.038;7.216;2024-01-10T07:50:22;10.95;;;4.90;;
1128;SDS011;553;51.038;7.216;2024-01-10T07:52:53;13.00;;;4.35;;
1128;SDS011;553;51.038;7.216;2024-01-10T07:55:20;10.38;;;5.13;;
1128;SDS011;553;51.038;7.216;2024-01-10T07:57:46;11.00;;;5.63;;
1128;SDS011;553;51.038;7.216;2024-01-10T08:00:13;8.48;;;4.45;;
1128;SDS011;553;51.038;7.216;2024-01-10T08:02:41;7.95;;;4.70;;
1128;SDS011;553;51.038;7.216;2024-01-10T08:05:08;11.60;;;5.00;;
1128;SDS011;553;51.038;7.216;2024-01-10T08:07:36;8.23;;;4.35;;
1128;SDS011;553;51.038;7.216;2024-01-10T08:10:06;8.93;;;4.60;;
1128;SDS011;553;51.038;7.216;2024-01-10T08:12:38;8.63;;;4.25;;
1128;SDS011;553;51.038;7.216;2024-01-10T08:15:06;9.07;;;4.53;;
1128;SDS011;553;51.038;7.216;2024-01-10T08:17:33;6.70;;;3.83;;
1128;SDS011;553;51.038;7.216;2024-01-10T08:20:00;9.48;;;3.92;;
1128;SDS011;553;51.038;7.216;2024-01-10T08:22:30;9.60;;;4.50;;
1128;SDS011;553;51.038;7.216;2024-01-10T08:24:57;9.05;;;4.85;;
1128;SDS011;553;51.038;7.216;2024-01-10T08:27:24;7.95;;;3.78;;
1128;SDS011;553;51.038;7.216;2024-01-10T08:29:51;10.95;;;5.25;;
1128;SDS011;553;51.038;7.216;2024-01-10T08:32:18;7.45;;;3.50;;
1128;SDS011;553;51.038;7.216;2024-01-10T08:34:48;10.45;;;4.97;;
1128;SDS011;553;51.038;7.216;2024-01-10T08:37:15;7.30;;;4.40;;
1128;SDS011;553;51.038;7.216;2024-01-10T08:39:43;6.93;;;3.15;;
1128;SDS011;553;51.038;7.216;2024-01-10T08:42:13;7.72;;;3.83;;
1128;SDS011;553;51.038;7.216;2024-01-10T08:44:39;10.50;;;4.00;;
1128;SDS011;553;51.038;7.216;2024-01-10T08:47:06;8.63;;;4.57;;
1128;SDS011;553;51.038;7.216;2024-01-10T08:49:34;13.20;;;5.35;;
1128;SDS011;553;51.038;7.216;2024-01-10T08:52:00;11.57;;;5.15;;
1128;SDS011;553;51.038;7.216;2024-01-10T08:54:27;9.95;;;5.22;;
1128;SDS011;553;51.038;7.216;2024-01-10T08:56:55;10.30;;;5.75;;
1128;SDS011;553;51.038;7.216;2024-01-10T08:59:21;11.27;;;4.90;;
1128;SDS011;553;51.038;7.216;2024-01-10T09:01:48;7.47;;;4.15;;
1128;SDS011;553;51.038;7.216;2024-01-10T09:04:15;12.07;;;5.95;;
1128;SDS011;553;51.038;7.216;2024-01-10T09:06:41;12.27;;;5.20;;
1128;SDS011;553;51.038;7.216;2024-01-10T09:09:08;11.05;;;5.65;;
1128;SDS011;553;51.038;7.216;2024-01-10T09:11:35;9.40;;;5.72;;
1128;SDS011;553;51.038;7.216;2024-01-10T09:14:06;10.32;;;5.30;;
1128;SDS011;553;51.038;7.216;2024-01-10T09:16:35;11.00;;;5.43;;
1128;SDS011;553;51.038;7.216;2024-01-10T09:19:01;10.90;;;5.30;;
1128;SDS011;553;51.038;7.216;2024-01-10T09:21:28;23.77;;;11.52;;
1128;SDS011;553;51.038;7.216;2024-01-10T09:23:55;14.93;;;7.95;;
1128;SDS011;553;51.038;7.216;2024-01-10T09:26:23;12.05;;;7.15;;
1128;SDS011;553;51.038;7.216;2024-01-10T09:28:50;12.65;;;7.00;;
1128;SDS011;553;51.038;7.216;2024-01-10T09:31:17;15.73;;;7.10;;
1128;SDS011;553;51.038;7.216;2024-01-10T09:33:44;14.52;;;7.50;;
1128;SDS011;553;51.038;7.216;2024-01-10T09:36:12;12.68;;;6.80;;
1128;SDS011;553;51.038;7.216;2024-01-10T09:38:39;15.43;;;6.47;;
1128;SDS011;553;51.038;7.216;2024-01-10T09:41:06;20.67;;;9.38;;
1128;SDS011;553;51.038;7.216;2024-01-10T09:43:33;22.38;;;9.65;;
1128;SDS011;553;51.038;7.216;2024-01-10T09:46:00;18.02;;;8.00;;
1128;SDS011;553;51.038;7.216;2024-01-10T09:48:29;16.80;;;7.32;;
1128;SDS011;553;51.038;7.216;2024-01-10T09:50:56;24.10;;;11.68;;
1128;SDS011;553;51.038;7.216;2024-01-10T09:53:24;15.50;;;8.05;;
1128;SDS011;553;51.038;7.216;2024-01-10T09:55:53;13.63;;;6.80;;
1128;SDS011;553;51.038;7.216;2024-01-10T09:58:23;12.95;;;6.95;;
1128;SDS011;553;51.038;7.216;2024-01-10T10:00:53;15.07;;;7.50;;
1128;SDS011;553;51.038;7.216;2024-01-10T10:03:19;11.57;;;6.75;;
1128;SDS011;553;51.038;7.216;2024-01-10T10:05:46;11.82;;;6.50;;
1128;SDS011;553;51.038;7.216;2024-01-10T10:08:13;16.65;;;8.70;;
1128;SDS011;553;51.038;7.216;2024-01-10T10:10:41;13.43;;;7.10;;
1128;SDS011;553;51.038;7.216;2024-01-10T10:13:23;15.43;;;8.00;;
1128;SDS011;553;51.038;7.216;2024-01-10T10:16:01;17.38;;;8.18;;
1128;SDS011;553;51.038;7.216;2024-01-10T10:18:29;14.38;;;7.60;;
1128;SDS011;553;51.038;7.216;2024-01-10T10:21:08;15.88;;;7.72;;
1128;SDS011;553;51.038;7.216;2024-01-10T10:23:36;17.77;;;7.82;;
1128;SDS011;553;51.038;7.216;2024-01-10T10:26:13;13.90;;;7.75;;
1128;SDS011;553;51.038;7.216;2024-01-10T10:28:49;15.93;;;7.53;;
1128;SDS011;553;51.038;7.216;2024-01-10T10:31:18;14.43;;;7.00;;
1128;SDS011;553;51.038;7.216;2024-01-10T10:33:45;19.05;;;8.25;;
1128;SDS011;553;51.038;7.216;2024-01-10T10:36:14;17.10;;;8.88;;
1128;SDS011;553;51.038;7.216;2024-01-10T10:38:42;14.20;;;8.27;;
1128;SDS011;553;51.038;7.216;2024-01-10T10:41:09;13.52;;;8.60;;
1128;SDS011;553;51.038;7.216;2024-01-10T10:43:39;14.05;;;7.60;;
1128;SDS011;553;51.038;7.216;2024-01-10T10:46:07;13.55;;;8.18;;
1128;SDS011;553;51.038;7.216;2024-01-10T10:48:36;16.37;;;8.20;;
1128;SDS011;553;51.038;7.216;2024-01-10T10:53:36;15.50;;;8.55;;
1128;SDS011;553;51.038;7.216;2024-01-10T10:56:04;15.82;;;9.52;;
1128;SDS011;553;51.038;7.216;2024-01-10T10:58:33;14.00;;;8.27;;
1128;SDS011;553;51.038;7.216;2024-01-10T11:01:03;18.38;;;8.65;;
1128;SDS011;553;51.038;7.216;2024-01-10T11:03:34;16.97;;;9.30;;
1128;SDS011;553;51.038;7.216;2024-01-10T11:06:03;16.70;;;8.83;;
1128;SDS011;553;51.038;7.216;2024-01-10T11:08:34;15.35;;;8.18;;
1128;SDS011;553;51.038;7.216;2024-01-10T11:14:26;14.33;;;8.27;;
1128;SDS011;553;51.038;7.216;2024-01-10T11:17:14;19.60;;;9.15;;
1128;SDS011;553;51.038;7.216;2024-01-10T11:22:43;15.10;;;8.77;;
1128;SDS011;553;51.038;7.216;2024-01-10T11:25:30;14.63;;;8.37;;
1128;SDS011;553;51.038;7.216;2024-01-10T11:28:02;21.02;;;9.38;;
1128;SDS011;553;51.038;7.216;2024-01-10T11:30:33;17.65;;;9.80;;
1128;SDS011;553;51.038;7.216;2024-01-10T11:33:23;19.17;;;9.80;;
1128;SDS011;553;51.038;7.216;2024-01-10T11:38:42;14.73;;;7.88;;
1128;SDS011;553;51.038;7.216;2024-01-10T11:41:23;20.38;;;9.70;;
1128;SDS011;553;51.038;7.216;2024-01-10T11:46:49;16.95;;;8.63;;
1128;SDS011;553;51.038;7.216;2024-01-10T11:49:19;20.80;;;10.77;;
1128;SDS011;553;51.038;7.216;2024-01-10T11:51:47;15.80;;;8.88;;
1128;SDS011;553;51.038;7.216;2024-01-10T11:54:34;22.30;;;9.80;;
1128;SDS011;553;51.038;7.216;2024-01-10T11:57:13;20.75;;;9.40;;
1128;SDS011;553;51.038;7.216;2024-01-10T11:59:44;17.63;;;8.82;;
1128;SDS011;553;51.038;7.216;2024-01-10T12:02:12;17.75;;;9.30;;
1128;SDS011;553;51.038;7.216;2024-01-10T12:04:43;21.17;;;10.15;;
1128;SDS011;553;51.038;7.216;2024-01-10T12:07:14;31.85;;;17.30;;
1128;SDS011;553;51.038;7.216;2024-01-10T12:09:43;17.63;;;9.40;;
1128;SDS011;553;51.038;7.216;2024-01-10T12:12:10;18.70;;;9.68;;
1128;SDS011;553;51.038;7.216;2024-01-10T12:14:38;19.58;;;9.35;;
1128;SDS011;553;51.038;7.216;2024-01-10T12:17:06;16.50;;;10.38;;
1128;SDS011;553;51.038;7.216;2024-01-10T12:19:34;17.10;;;8.32;;
1128;SDS011;553;51.038;7.216;2024-01-10T12:22:05;18.50;;;10.23;;
1128;SDS011;553;51.038;7.216;2024-01-10T12:24:34;19.83;;;10.38;;
1128;SDS011;553;51.038;7.216;2024-01-10T12:27:10;18.38;;;10.75;;
1128;SDS011;553;51.038;7.216;2024-01-10T12:29:37;15.75;;;9.10;;
1128;SDS011;553;51.038;7.216;2024-01-10T12:32:04;17.10;;;8.43;;
1128;SDS011;553;51.038;7.216;2024-01-10T12:34:31;17.38;;;10.13;;
1128;SDS011;553;51.038;7.216;2024-01-10T12:36:58;19.83;;;11.38;;
1128;SDS011;553;51.038;7.216;2024-01-10T12:39:25;20.25;;;11.40;;
1128;SDS011;553;51.038;7.216;2024-01-10T12:41:57;21.08;;;11.95;;
1128;SDS011;553;51.038;7.216;2024-01-10T12:44:27;20.27;;;10.13;;
1128;SDS011;553;51.038;7.216;2024-01-10T12:46:56;20.33;;;10.07;;
1128;SDS011;553;51.038;7.216;2024-01-10T12:49:23;18.45;;;9.85;;
1128;SDS011;553;51.038;7.216;2024-01-10T12:51:50;15.90;;;9.40;;
1128;SDS011;553;51.038;7.216;2024-01-10T12:54:17;16.92;;;10.32;;
1128;SDS011;553;51.038;7.216;2024-01-10T12:56:44;15.13;;;9.82;;
1128;SDS011;553;51.038;7.216;2024-01-10T12:59:11;22.38;;;9.75;;
1128;SDS011;553;51.038;7.216;2024-01-10T13:01:38;19.73;;;10.40;;
1128;SDS011;553;51.038;7.216;2024-01-10T13:04:05;19.13;;;10.02;;
1128;SDS011;553;51.038;7.216;2024-01-10T13:06:35;20.50;;;9.90;;
1128;SDS011;553;51.038;7.216;2024-01-10T13:09:01;18.83;;;10.52;;
1128;SDS011;553;51.038;7.216;2024-01-10T13:11:28;22.73;;;11.48;;
1128;SDS011;553;51.038;7.216;2024-01-10T13:13:56;24.05;;;10.52;;
1128;SDS011;553;51.038;7.216;2024-01-10T13:16:23;23.30;;;11.05;;
1128;SDS011;553;51.038;7.216;2024-01-10T13:18:50;20.83;;;11.00;;
1128;SDS011;553;51.038;7.216;2024-01-10T13:21:19;17.02;;;9.23;;
1128;SDS011;553;51.038;7.216;2024-01-10T13:23:46;20.05;;;10.25;;
1128;SDS011;553;51.038;7.216;2024-01-10T13:26:13;20.38;;;10.50;;
1128;SDS011;553;51.038;7.216;2024-01-10T13:28:41;16.55;;;10.13;;
1128;SDS011;553;51.038;7.216;2024-01-10T13:31:08;18.63;;;9.60;;
1128;SDS011;553;51.038;7.216;2024-01-10T13:33:36;21.33;;;9.70;;
1128;SDS011;553;51.038;7.216;2024-01-10T13:36:12;20.30;;;9.48;;
1128;SDS011;553;51.038;7.216;2024-01-10T13:38:39;17.40;;;10.55;;
1128;SDS011;553;51.038;7.216;2024-01-10T13:41:06;17.77;;;10.20;;
1128;SDS011;553;51.038;7.216;2024-01-10T13:43:32;18.42;;;10.10;;
1128;SDS011;553;51.038;7.216;2024-01-10T13:45:59;19.27;;;10.52;;
1128;SDS011;553;51.038;7.216;2024-01-10T13:48:31;16.45;;;9.20;;
1128;SDS011;553;51.038;7.216;2024-01-10T13:50:58;20.30;;;10.48;;
1128;SDS011;553;51.038;7.216;2024-01-10T13:53:25;16.88;;;10.20;;
1128;SDS011;553;51.038;7.216;2024-01-10T13:55:52;22.30;;;11.15;;
1128;SDS011;553;51.038;7.216;2024-01-10T13:58:18;19.83;;;9.98;;
1128;SDS011;553;51.038;7.216;2024-01-10T14:00:45;20.38;;;10.32;;
1128;SDS011;553;51.038;7.216;2024-01-10T14:03:13;22.48;;;11.07;;
1128;SDS011;553;51.038;7.216;2024-01-10T14:05:40;20.55;;;11.70;;
1128;SDS011;553;51.038;7.216;2024-01-10T14:08:07;37.42;;;19.25;;
1128;SDS011;553;51.038;7.216;2024-01-10T14:10:35;24.40;;;11.57;;
1128;SDS011;553;51.038;7.216;2024-01-10T14:13:01;20.10;;;10.65;;
1128;SDS011;553;51.038;7.216;2024-01-10T14:15:30;18.20;;;10.20;;
1128;SDS011;553;51.038;7.216;2024-01-10T14:17:56;19.88;;;9.73;;
1128;SDS011;553;51.038;7.216;2024-01-10T14:20:24;21.60;;;11.52;;
1128;SDS011;553;51.038;7.216;2024-01-10T14:22:51;17.50;;;10.30;;
1128;SDS011;553;51.038;7.216;2024-01-10T14:25:18;22.40;;;10.40;;
1128;SDS011;553;51.038;7.216;2024-01-10T14:27:46;17.60;;;10.57;;
1128;SDS011;553;51.038;7.216;2024-01-10T14:30:14;20.45;;;11.20;;
1128;SDS011;553;51.038;7.216;2024-01-10T14:32:42;16.10;;;10.63;;
1128;SDS011;553;51.038;7.216;2024-01-10T14:35:09;18.35;;;10.18;;
1128;SDS011;553;51.038;7.216;2024-01-10T14:37:36;18.25;;;10.95;;
1128;SDS011;553;51.038;7.216;2024-01-10T14:40:03;23.45;;;10.85;;
1128;SDS011;553;51.038;7.216;2024-01-10T14:42:32;15.25;;;9.80;;
1128;SDS011;553;51.038;7.216;2024-01-10T14:45:00;17.40;;;10.35;;
1128;SDS011;553;51.038;7.216;2024-01-10T14:47:27;21.83;;;10.63;;
1128;SDS011;553;51.038;7.216;2024-01-10T14:49:55;22.50;;;11.18;;
1128;SDS011;553;51.038;7.216;2024-01-10T14:52:24;23.80;;;12.45;;
1128;SDS011;553;51.038;7.216;2024-01-10T14:54:52;24.17;;;12.77;;
1128;SDS011;553;51.038;7.216;2024-01-10T14:57:19;25.42;;;13.30;;
1128;SDS011;553;51.038;7.216;2024-01-10T14:59:46;20.20;;;11.10;;
1128;SDS011;553;51.038;7.216;2024-01-10T15:02:14;23.75;;;13.40;;
1128;SDS011;553;51.038;7.216;2024-01-10T15:04:42;22.85;;;14.18;;
1128;SDS011;553;51.038;7.216;2024-01-10T15:07:10;28.75;;;15.18;;
1128;SDS011;553;51.038;7.216;2024-01-10T15:09:37;34.55;;;20.35;;
1128;SDS011;553;51.038;7.216;2024-01-10T15:12:04;21.30;;;12.15;;
1128;SDS011;553;51.038;7.216;2024-01-10T15:14:36;22.13;;;11.02;;
1128;SDS011;553;51.038;7.216;2024-01-10T15:17:04;21.83;;;12.98;;
1128;SDS011;553;51.038;7.216;2024-01-10T15:19:34;20.98;;;11.07;;
1128;SDS011;553;51.038;7.216;2024-01-10T15:22:02;21.50;;;12.32;;
1128;SDS011;553;51.038;7.216;2024-01-10T15:24:29;25.27;;;13.90;;
1128;SDS011;553;51.038;7.216;2024-01-10T15:26:56;22.15;;;12.43;;
1128;SDS011;553;51.038;7.216;2024-01-10T15:29:28;20.00;;;12.00;;
1128;SDS011;553;51.038;7.216;2024-01-10T15:31:55;23.33;;;11.70;;
1128;SDS011;553;51.038;7.216;2024-01-10T15:34:22;14.68;;;9.75;;
1128;SDS011;553;51.038;7.216;2024-01-10T15:36:51;19.27;;;9.88;;